createdAt,value
2022-12-27T00:00:10.138Z,6.62
2022-12-27T00:03:04.305Z,6.64
2022-12-27T00:05:32.662Z,6.64
2022-12-27T00:08:00.759Z,6.64
2022-12-27T00:10:28.814Z,6.62
2022-12-27T00:12:57.004Z,6.63
2022-12-27T00:15:25.134Z,6.63
2022-12-27T00:17:53.350Z,6.61
2022-12-27T00:20:21.535Z,6.61
2022-12-27T00:22:49.689Z,6.61
2022-12-27T00:25:18.207Z,6.59
2022-12-27T00:27:46.476Z,6.58
2022-12-27T00:30:15.807Z,6.57
2022-12-27T00:32:43.966Z,6.55
2022-12-27T00:35:12.672Z,6.54
2022-12-27T00:37:40.793Z,6.56
2022-12-27T00:40:09.941Z,6.56
2022-12-27T00:42:38.234Z,6.57
2022-12-27T00:45:07.260Z,6.59
2022-12-27T00:47:35.355Z,6.59
2022-12-27T00:50:04.706Z,6.60
2022-12-27T00:52:32.801Z,6.60
2022-12-27T00:55:00.937Z,6.59
2022-12-27T00:57:29.145Z,6.59
2022-12-27T00:59:57.259Z,6.58
2022-12-27T01:02:26.227Z,6.59
2022-12-27T01:04:55.176Z,6.59
2022-12-27T01:07:24.384Z,6.59
2022-12-27T01:09:52.546Z,6.60
2022-12-27T01:12:20.849Z,6.62
2022-12-27T01:14:48.898Z,6.61
2022-12-27T01:17:18.155Z,6.62
2022-12-27T01:19:46.799Z,6.63
2022-12-27T01:22:14.877Z,6.63
2022-12-27T01:24:43.341Z,6.62
2022-12-27T01:27:11.588Z,6.63
2022-12-27T01:29:39.706Z,6.63
2022-12-27T01:32:08.647Z,6.62
2022-12-27T01:34:37.236Z,6.62
2022-12-27T01:37:05.450Z,6.61
2022-12-27T01:39:33.580Z,6.59
2022-12-27T01:42:20.438Z,6.59
2022-12-27T01:44:58.135Z,6.59
2022-12-27T01:47:49.937Z,6.60
2022-12-27T01:50:34.351Z,6.63
2022-12-27T01:53:07.273Z,6.64
2022-12-27T01:55:49.493Z,6.63
2022-12-27T01:58:39.802Z,6.67
2022-12-27T02:01:13.478Z,6.68
2022-12-27T02:03:56.065Z,6.68
2022-12-27T02:06:26.873Z,6.71
2022-12-27T02:09:07.400Z,6.73
2022-12-27T02:11:52.487Z,6.73
2022-12-27T02:14:28.503Z,6.77
2022-12-27T02:17:06.598Z,6.73
2022-12-27T02:19:40.922Z,6.77
2022-12-27T02:22:30.993Z,6.78
2022-12-27T02:25:11.277Z,6.81
2022-12-27T02:28:24.876Z,6.82
2022-12-27T02:30:59.946Z,6.83
2022-12-27T02:33:32.908Z,6.81
2022-12-27T02:36:05.021Z,6.78
2022-12-27T02:38:38.451Z,6.78
2022-12-27T02:41:28.473Z,6.77
2022-12-27T02:44:17.109Z,6.77
2022-12-27T02:47:08.839Z,6.76
2022-12-27T02:49:58.216Z,6.67
2022-12-27T02:53:04.327Z,6.67
2022-12-27T02:55:41.308Z,6.64
2022-12-27T02:58:46.948Z,6.59
2022-12-27T03:01:53.411Z,6.48
2022-12-27T03:04:32.108Z,6.37
2022-12-27T03:07:06.518Z,6.24
2022-12-27T03:10:13.796Z,6.17
2022-12-27T03:13:26.754Z,6.08
2022-12-27T03:16:08.939Z,5.94
2022-12-27T03:18:43.056Z,5.88
2022-12-27T03:21:37.800Z,5.80
2022-12-27T03:24:26.266Z,5.77
2022-12-27T03:26:56.081Z,5.74
2022-12-27T03:29:44.456Z,5.75
2022-12-27T03:32:34.344Z,5.74
2022-12-27T03:35:19.705Z,5.73
2022-12-27T03:38:04.109Z,5.74
2022-12-27T03:41:03.509Z,5.72
2022-12-27T03:43:32.921Z,5.73
2022-12-27T03:46:34.021Z,5.76
2022-12-27T03:49:27.629Z,5.76
2022-12-27T03:52:17.548Z,5.78
2022-12-27T03:54:50.202Z,5.78
2022-12-27T03:57:21.756Z,5.80
2022-12-27T03:59:50.320Z,5.75
2022-12-27T04:02:19.180Z,5.75
2022-12-27T04:04:48.587Z,5.74
2022-12-27T04:07:16.877Z,5.69
2022-12-27T04:10:03.727Z,5.67
2022-12-27T04:12:50.637Z,5.63
2022-12-27T04:15:37.773Z,5.61
2022-12-27T04:18:24.694Z,5.52
2022-12-27T04:21:11.707Z,5.47
2022-12-27T04:23:58.427Z,5.43
2022-12-27T04:26:45.215Z,5.39
2022-12-27T04:29:32.029Z,5.40
2022-12-27T04:32:19.019Z,5.36
2022-12-27T04:34:47.339Z,5.33
2022-12-27T04:37:20.029Z,5.28
2022-12-27T04:40:11.280Z,5.27
2022-12-27T04:42:58.184Z,5.25
2022-12-27T04:45:44.831Z,5.24
2022-12-27T04:48:33.731Z,5.15
2022-12-27T04:51:20.908Z,5.10
2022-12-27T04:54:07.721Z,4.98
2022-12-27T04:56:35.931Z,4.92
2022-12-27T04:59:22.733Z,4.84
2022-12-27T05:02:03.787Z,4.76
2022-12-27T05:04:34.732Z,4.70
2022-12-27T05:07:24.877Z,4.67
2022-12-27T05:10:12.414Z,4.61
2022-12-27T05:12:59.176Z,4.55
2022-12-27T05:15:27.372Z,4.49
2022-12-27T05:17:57.597Z,4.47
2022-12-27T05:20:25.699Z,4.43
2022-12-27T05:23:12.955Z,4.40
2022-12-27T05:25:45.963Z,4.35
2022-12-27T05:28:14.214Z,4.32
2022-12-27T05:30:44.659Z,4.35
2022-12-27T05:33:13.188Z,4.30
2022-12-27T05:35:41.607Z,4.28
2022-12-27T05:38:10.022Z,4.26
2022-12-27T05:40:38.178Z,4.23
2022-12-27T05:43:06.308Z,4.20
2022-12-27T05:45:34.742Z,4.22
2022-12-27T05:48:02.965Z,4.21
2022-12-27T05:50:31.154Z,4.15
2022-12-27T05:53:11.894Z,4.16
2022-12-27T05:55:41.059Z,4.14
2022-12-27T05:58:09.235Z,4.03
2022-12-27T06:00:37.300Z,3.91
2022-12-27T06:03:05.752Z,3.78
2022-12-27T06:05:33.942Z,3.63
2022-12-27T06:08:02.072Z,3.48
2022-12-27T06:10:30.541Z,3.37
2022-12-27T06:13:02.353Z,3.23
2022-12-27T06:15:31.162Z,3.10
2022-12-27T06:18:00.609Z,3.06
2022-12-27T06:20:29.115Z,2.97
2022-12-27T06:23:00.183Z,2.87
2022-12-27T06:25:28.383Z,2.74
2022-12-27T06:27:56.629Z,2.63
2022-12-27T06:30:24.915Z,2.55
2022-12-27T06:32:53.144Z,2.48
2022-12-27T06:35:21.650Z,2.47
2022-12-27T06:37:50.575Z,2.41
2022-12-27T06:40:20.982Z,2.38
2022-12-27T06:42:49.184Z,2.38
2022-12-27T06:45:17.545Z,2.34
2022-12-27T06:47:45.873Z,2.29
2022-12-27T06:50:14.123Z,2.28
2022-12-27T06:52:42.490Z,2.26
2022-12-27T06:55:10.557Z,2.22
2022-12-27T06:57:38.843Z,2.21
2022-12-27T07:00:08.122Z,2.17
2022-12-27T07:02:38.313Z,2.14
2022-12-27T07:05:07.429Z,2.11
2022-12-27T07:07:35.638Z,2.07
2022-12-27T07:10:04.145Z,2.04
2022-12-27T07:12:36.637Z,2.03
2022-12-27T07:15:08.363Z,1.99
2022-12-27T07:17:36.996Z,1.95
2022-12-27T07:20:06.654Z,1.92
2022-12-27T07:22:35.126Z,1.93
2022-12-27T07:25:03.455Z,1.91
2022-12-27T07:27:35.625Z,1.87
2022-12-27T07:30:05.286Z,1.85
2022-12-27T07:32:33.700Z,1.88
2022-12-27T07:35:02.615Z,1.84
2022-12-27T07:37:30.914Z,1.82
2022-12-27T07:39:59.154Z,1.78
2022-12-27T07:42:28.817Z,1.77
2022-12-27T07:44:57.142Z,1.71
2022-12-27T07:47:25.367Z,1.70
2022-12-27T07:49:53.631Z,1.69
2022-12-27T07:52:21.827Z,1.68
2022-12-27T07:54:49.958Z,1.68
2022-12-27T07:57:18.160Z,1.69
2022-12-27T07:59:46.347Z,1.68
2022-12-27T08:02:16.705Z,1.69
2022-12-27T08:04:45.934Z,1.69
2022-12-27T08:07:16.654Z,1.71
2022-12-27T08:09:47.258Z,1.72
2022-12-27T08:12:15.737Z,1.72
2022-12-27T08:14:45.193Z,1.72
2022-12-27T08:17:22.744Z,1.69
2022-12-27T08:19:52.045Z,1.72
2022-12-27T08:22:22.082Z,1.73
2022-12-27T08:24:50.343Z,1.74
2022-12-27T08:27:23.526Z,1.78
2022-12-27T08:29:51.715Z,1.83
2022-12-27T08:32:20.455Z,1.84
2022-12-27T08:34:48.881Z,1.85
2022-12-27T08:37:17.219Z,1.88
2022-12-27T08:39:45.496Z,1.86
2022-12-27T08:42:14.499Z,1.85
2022-12-27T08:44:42.754Z,1.84
2022-12-27T08:47:10.879Z,1.88
2022-12-27T08:49:38.960Z,1.93
2022-12-27T08:52:07.210Z,1.95
2022-12-27T08:54:35.424Z,1.96
2022-12-27T08:57:03.929Z,1.96
2022-12-27T08:59:32.165Z,2.03
2022-12-27T09:02:00.573Z,2.09
2022-12-27T09:04:28.866Z,2.07
2022-12-27T09:06:57.221Z,2.10
2022-12-27T09:09:25.680Z,2.06
2022-12-27T09:11:53.887Z,2.04
2022-12-27T09:14:23.288Z,2.05
2022-12-27T09:16:51.582Z,2.00
2022-12-27T09:19:19.816Z,2.02
2022-12-27T09:21:48.633Z,1.95
2022-12-27T09:24:16.852Z,1.93
2022-12-27T09:26:45.257Z,1.92
2022-12-27T09:29:13.657Z,1.96
2022-12-27T09:31:41.867Z,1.98
2022-12-27T09:34:11.373Z,2.02
2022-12-27T09:36:40.548Z,2.03
2022-12-27T09:39:12.319Z,2.05
2022-12-27T09:44:51.104Z,2.12
2022-12-27T09:47:34.812Z,2.11
2022-12-27T09:50:14.014Z,2.15
2022-12-27T09:52:55.223Z,2.18
2022-12-27T09:55:40.893Z,2.13
2022-12-27T09:58:34.817Z,2.12
2022-12-27T10:01:07.321Z,2.12
2022-12-27T10:03:37.899Z,2.18
2022-12-27T10:06:36.609Z,2.15
2022-12-27T10:09:45.310Z,2.14
2022-12-27T10:12:32.363Z,2.11
2022-12-27T10:15:22.251Z,2.13
2022-12-27T10:18:09.575Z,2.11
2022-12-27T10:21:05.903Z,2.14
2022-12-27T10:23:46.214Z,2.13
2022-12-27T10:26:18.122Z,2.14
2022-12-27T10:28:53.124Z,2.13
2022-12-27T10:31:27.209Z,2.10
2022-12-27T10:33:55.512Z,2.12
2022-12-27T10:36:29.828Z,2.10
2022-12-27T10:38:58.312Z,2.15
2022-12-27T10:42:02.519Z,2.26
2022-12-27T10:44:30.827Z,2.38
2022-12-27T10:46:59.922Z,2.44
2022-12-27T10:49:33.865Z,2.49
2022-12-27T10:52:21.646Z,2.58
2022-12-27T10:54:51.547Z,2.66
2022-12-27T10:57:30.311Z,2.68
2022-12-27T11:00:19.283Z,2.66
2022-12-27T11:02:58.486Z,2.67
2022-12-27T11:05:32.721Z,2.70
2022-12-27T11:08:19.614Z,2.76
2022-12-27T11:10:47.872Z,2.75
2022-12-27T11:13:19.549Z,2.79
2022-12-27T11:15:58.667Z,2.89
2022-12-27T11:18:27.389Z,2.88
2022-12-27T11:20:58.456Z,2.80
2022-12-27T11:23:36.405Z,2.77
2022-12-27T11:26:07.923Z,2.74
2022-12-27T11:28:53.052Z,2.69
2022-12-27T11:31:42.693Z,2.65
2022-12-27T11:34:24.904Z,2.70
2022-12-27T11:36:56.056Z,2.69
2022-12-27T11:39:46.132Z,2.69
2022-12-27T11:42:23.653Z,2.69
2022-12-27T11:45:13.011Z,2.70
2022-12-27T11:47:49.839Z,2.68
2022-12-27T11:50:27.517Z,2.65
2022-12-27T11:53:08.011Z,2.63
2022-12-27T11:55:51.373Z,2.59
2022-12-27T11:58:50.817Z,2.55
2022-12-27T12:01:58.339Z,2.57
2022-12-27T12:04:26.615Z,2.62
2022-12-27T12:07:41.065Z,2.70
2022-12-27T12:10:31.054Z,2.76
2022-12-27T12:13:08.428Z,2.82
2022-12-27T12:16:14.808Z,2.86
2022-12-27T12:19:11.928Z,2.86
2022-12-27T12:21:39.960Z,2.84
2022-12-27T12:24:30.034Z,2.82
2022-12-27T12:27:15.568Z,2.81
2022-12-27T12:29:58.882Z,2.80
2022-12-27T12:33:04.452Z,2.77
2022-12-27T12:35:54.285Z,2.75
2022-12-27T12:38:23.895Z,2.72
2022-12-27T12:41:04.274Z,2.69
2022-12-27T12:44:06.772Z,2.62
2022-12-27T12:47:16.751Z,2.61
2022-12-27T12:49:53.888Z,2.54
2022-12-27T12:52:43.593Z,2.50
2022-12-27T12:55:23.222Z,2.49
2022-12-27T12:58:09.376Z,2.48
2022-12-27T13:00:40.309Z,2.48
2022-12-27T13:03:27.132Z,2.46
2022-12-27T13:06:17.288Z,2.47
2022-12-27T13:08:53.004Z,2.51
2022-12-27T13:11:56.742Z,2.57
2022-12-27T13:14:43.853Z,2.61
2022-12-27T13:17:24.657Z,2.64
2022-12-27T13:20:01.575Z,2.64
2022-12-27T13:22:44.156Z,2.67
2022-12-27T13:25:40.713Z,2.66
2022-12-27T13:28:47.588Z,2.69
2022-12-27T13:31:33.644Z,2.65
2022-12-27T13:34:22.950Z,2.60
2022-12-27T13:37:12.755Z,2.56
2022-12-27T13:40:00.782Z,2.55
2022-12-27T13:43:17.208Z,2.51
2022-12-27T13:45:52.430Z,2.52
2022-12-27T13:48:45.204Z,2.51
2022-12-27T13:51:25.767Z,2.48
2022-12-27T13:54:34.746Z,2.48
2022-12-27T13:57:05.692Z,2.53
2022-12-27T13:59:49.192Z,2.51
2022-12-27T14:02:50.868Z,2.53
2022-12-27T14:05:37.349Z,2.53
2022-12-27T14:08:20.934Z,2.57
2022-12-27T14:10:55.281Z,2.59
2022-12-27T14:13:32.611Z,2.67
2022-12-27T14:16:23.006Z,2.66
2022-12-27T14:18:57.416Z,2.64
2022-12-27T14:21:44.688Z,2.62
2022-12-27T14:24:38.069Z,2.60
2022-12-27T14:27:35.760Z,2.58
2022-12-27T14:30:46.994Z,2.57
2022-12-27T14:33:40.725Z,2.55
2022-12-27T14:36:28.194Z,2.52
2022-12-27T14:39:13.435Z,2.54
2022-12-27T14:42:09.523Z,2.48
2022-12-27T14:45:14.770Z,2.46
2022-12-27T14:47:48.906Z,2.44
2022-12-27T14:51:01.880Z,2.45
2022-12-27T14:53:35.565Z,2.40
2022-12-27T14:56:15.712Z,2.38
2022-12-27T14:58:52.812Z,2.38
2022-12-27T15:01:38.320Z,2.36
2022-12-27T15:04:28.367Z,2.40
2022-12-27T15:07:15.344Z,2.39
2022-12-27T15:10:08.852Z,2.40
2022-12-27T15:12:59.827Z,2.40
2022-12-27T15:15:42.865Z,2.38
2022-12-27T15:18:45.662Z,2.38
2022-12-27T15:21:52.577Z,2.39
2022-12-27T15:24:26.633Z,2.39
2022-12-27T15:27:06.953Z,2.38
2022-12-27T15:30:07.569Z,2.38
2022-12-27T15:33:08.471Z,2.37
2022-12-27T15:36:03.164Z,2.36
2022-12-27T15:38:41.372Z,2.33
2022-12-27T15:41:09.620Z,2.31
2022-12-27T15:44:05.602Z,2.34
2022-12-27T15:46:58.741Z,2.32
2022-12-27T15:49:51.996Z,2.29
2022-12-27T15:52:29.957Z,2.29
2022-12-27T15:55:04.145Z,2.24
2022-12-27T15:58:05.955Z,2.20
2022-12-27T16:00:34.801Z,2.14
2022-12-27T16:03:24.615Z,2.14
2022-12-27T16:05:54.818Z,2.15
2022-12-27T16:08:33.262Z,2.11
2022-12-27T16:11:08.502Z,2.11
2022-12-27T16:13:44.179Z,2.07
2022-12-27T16:16:38.928Z,2.03
2022-12-27T16:19:54.655Z,1.99
2022-12-27T16:22:53.885Z,1.93
2022-12-27T16:25:30.346Z,1.90
2022-12-27T16:28:24.994Z,1.83
2022-12-27T16:30:55.713Z,1.77
2022-12-27T16:33:27.950Z,1.75
2022-12-27T16:36:25.580Z,1.73
2022-12-27T16:39:11.828Z,1.69
2022-12-27T16:41:55.297Z,1.71
2022-12-27T16:44:26.501Z,1.70
2022-12-27T16:46:57.712Z,1.70
2022-12-27T16:50:00.083Z,1.68
2022-12-27T16:52:47.641Z,1.69
2022-12-27T16:55:30.889Z,1.69
2022-12-27T16:58:20.518Z,1.71
2022-12-27T17:00:51.744Z,1.70
2022-12-27T17:03:22.504Z,1.67
2022-12-27T17:06:30.168Z,1.67
2022-12-27T17:08:41.627Z,1.65
2022-12-27T17:11:29.972Z,1.62
2022-12-27T17:14:09.332Z,1.62
2022-12-27T17:16:43.175Z,1.62
2022-12-27T17:19:47.311Z,1.60
2022-12-27T17:22:17.497Z,1.57
2022-12-27T17:24:48.965Z,1.53
2022-12-27T17:27:39.594Z,1.53
2022-12-27T17:30:29.652Z,1.51
2022-12-27T17:33:43.505Z,1.49
2022-12-27T17:36:40.222Z,1.46
2022-12-27T17:39:41.076Z,1.45
2022-12-27T17:42:38.859Z,1.42
2022-12-27T17:45:09.973Z,1.39
2022-12-27T17:48:02.849Z,1.35
2022-12-27T17:50:32.169Z,1.33
2022-12-27T17:53:28.054Z,1.35
2022-12-27T17:56:21.704Z,1.34
2022-12-27T17:58:52.699Z,1.31
2022-12-27T18:01:29.495Z,1.30
2022-12-27T18:03:58.261Z,1.29
2022-12-27T18:06:26.490Z,1.27
2022-12-27T18:08:55.797Z,1.28
2022-12-27T18:11:28.009Z,1.25
2022-12-27T18:13:59.072Z,1.22
2022-12-27T18:16:37.442Z,1.21
2022-12-27T18:19:06.073Z,1.20
2022-12-27T18:21:34.201Z,1.18
2022-12-27T18:24:02.471Z,1.20
2022-12-27T18:26:38.699Z,1.19
2022-12-27T18:29:12.926Z,1.19
2022-12-27T18:31:49.854Z,1.18
2022-12-27T18:34:37.512Z,1.17
2022-12-27T18:37:15.515Z,1.14
2022-12-27T18:40:01.856Z,1.15
2022-12-27T18:42:36.597Z,1.10
2022-12-27T18:45:08.606Z,1.11
2022-12-27T18:47:44.829Z,1.10
2022-12-27T18:50:19.100Z,1.12
2022-12-27T18:52:53.062Z,1.15
2022-12-27T18:55:27.529Z,1.16
2022-12-27T18:58:19.942Z,1.16
2022-12-27T19:00:59.155Z,1.14
2022-12-27T19:03:28.230Z,1.13
2022-12-27T19:06:06.021Z,1.11
2022-12-27T19:08:38.822Z,1.09
2022-12-27T19:11:08.088Z,1.08
2022-12-27T19:13:42.141Z,1.09
2022-12-27T19:16:22.227Z,1.07
2022-12-27T19:18:53.737Z,1.07
2022-12-27T19:21:38.274Z,1.08
2022-12-27T19:24:19.992Z,1.09
2022-12-27T19:26:48.563Z,1.10
2022-12-27T19:29:19.574Z,1.10
2022-12-27T19:32:02.381Z,1.10
2022-12-27T19:34:44.052Z,1.11
2022-12-27T19:37:12.801Z,1.10
2022-12-27T19:39:41.755Z,1.11
2022-12-27T19:42:17.123Z,1.10
2022-12-27T19:44:45.462Z,1.08
2022-12-27T19:47:14.341Z,1.05
2022-12-27T19:49:44.085Z,1.04
2022-12-27T19:52:19.511Z,1.01
2022-12-27T19:54:48.851Z,1.01
2022-12-27T19:57:17.424Z,0.97
2022-12-27T19:59:45.687Z,0.99
2022-12-27T20:02:14.220Z,0.92
2022-12-27T20:04:42.714Z,0.91
2022-12-27T20:07:20.327Z,0.87
2022-12-27T20:09:48.468Z,0.83
2022-12-27T20:12:17.757Z,0.80
2022-12-27T20:14:47.653Z,0.80
2022-12-27T20:17:15.889Z,0.80
2022-12-27T20:19:44.015Z,0.79
2022-12-27T20:22:12.556Z,0.81
2022-12-27T20:24:40.622Z,0.85
2022-12-27T20:27:08.976Z,0.84
2022-12-27T20:29:37.332Z,0.84
2022-12-27T20:32:05.885Z,0.87
2022-12-27T20:34:34.547Z,0.87
2022-12-27T20:37:02.915Z,0.88
2022-12-27T20:39:31.147Z,0.86
2022-12-27T20:41:59.353Z,0.83
2022-12-27T20:44:27.961Z,0.81
2022-12-27T20:46:56.425Z,0.79
2022-12-27T20:49:24.645Z,0.79
2022-12-27T20:52:00.267Z,0.79
2022-12-27T20:54:28.721Z,0.79
2022-12-27T20:56:57.385Z,0.81
2022-12-27T20:59:25.555Z,0.79
2022-12-27T21:01:57.280Z,0.79
2022-12-27T21:04:27.018Z,0.79
2022-12-27T21:06:55.332Z,0.77
2022-12-27T21:09:23.931Z,0.75
2022-12-27T21:11:55.800Z,0.75
2022-12-27T21:14:23.906Z,0.73
2022-12-27T21:16:52.117Z,0.71
2022-12-27T21:19:20.314Z,0.70
2022-12-27T21:21:48.443Z,0.66
2022-12-27T21:24:16.781Z,0.65
2022-12-27T21:26:44.974Z,0.62
2022-12-27T21:29:14.610Z,0.62
2022-12-27T21:31:43.111Z,0.67
2022-12-27T21:34:12.184Z,0.69
2022-12-27T21:36:40.453Z,0.69
2022-12-27T21:39:08.951Z,0.74
2022-12-27T21:41:39.750Z,0.73
2022-12-27T21:44:08.032Z,0.75
2022-12-27T21:46:42.173Z,0.76
2022-12-27T21:49:14.197Z,0.75
2022-12-27T21:51:45.523Z,0.76
2022-12-27T21:54:14.123Z,0.75
2022-12-27T21:56:43.049Z,0.77
2022-12-27T21:59:12.208Z,0.77
2022-12-27T22:01:51.283Z,0.78
2022-12-27T22:04:21.790Z,0.80
2022-12-27T22:06:50.245Z,0.78
2022-12-27T22:09:19.572Z,0.82
2022-12-27T22:11:48.573Z,0.83
2022-12-27T22:14:21.831Z,0.84
2022-12-27T22:16:53.440Z,0.86
2022-12-27T22:19:21.723Z,0.88
2022-12-27T22:21:50.043Z,0.89
2022-12-27T22:24:19.995Z,0.90
2022-12-27T22:26:50.411Z,0.93
2022-12-27T22:29:18.859Z,0.95
2022-12-27T22:31:47.737Z,0.97
2022-12-27T22:34:16.164Z,0.98
2022-12-27T22:36:44.263Z,1.00
2022-12-27T22:39:12.413Z,1.00
2022-12-27T22:41:41.255Z,1.02
2022-12-27T22:44:15.070Z,1.00
2022-12-27T22:47:25.170Z,1.01
2022-12-27T22:49:31.859Z,1.02
2022-12-27T22:52:00.052Z,1.00
2022-12-27T22:55:04.100Z,1.01
2022-12-27T22:57:16.185Z,1.02
2022-12-27T22:59:44.593Z,1.00
2022-12-27T23:02:13.989Z,0.98
2022-12-27T23:04:42.395Z,0.99
2022-12-27T23:07:10.450Z,0.99
2022-12-27T23:09:43.196Z,0.97
2022-12-27T23:12:13.102Z,0.97
2022-12-27T23:14:41.387Z,0.94
2022-12-27T23:17:10.090Z,0.94
2022-12-27T23:19:38.407Z,0.95
2022-12-27T23:22:07.263Z,0.93
2022-12-27T23:24:35.385Z,0.94
2022-12-27T23:27:03.528Z,0.91
2022-12-27T23:29:31.730Z,0.89
2022-12-27T23:32:00.239Z,0.88
2022-12-27T23:34:29.251Z,0.84
2022-12-27T23:36:58.750Z,0.83
2022-12-27T23:39:27.523Z,0.84
2022-12-27T23:41:56.193Z,0.82
2022-12-27T23:44:34.222Z,0.80
2022-12-27T23:47:05.522Z,0.80
2022-12-27T23:49:34.674Z,0.77
2022-12-27T23:52:03.396Z,0.76
2022-12-27T23:54:31.549Z,0.75
2022-12-27T23:57:19.930Z,0.76
2022-12-27T23:59:49.585Z,0.77
